sensor_id;sensor_type;location;lat;lon;timestamp;P1;durP1;ratioP1;P2;durP2;ratioP2
1759;SDS011;877;46.266;20.062;2023-09-19T00:01:42;11.60;;;4.93;;
1759;SDS011;877;46.266;20.062;2023-09-19T00:04:11;6.40;;;4.83;;
1759;SDS011;877;46.266;20.062;2023-09-19T00:06:38;8.13;;;5.03;;
1759;SDS011;877;46.266;20.062;2023-09-19T00:09:04;9.00;;;4.93;;
1759;SDS011;877;46.266;20.062;2023-09-19T00:11:35;7.10;;;4.73;;
1759;SDS011;877;46.266;20.062;2023-09-19T00:14:01;5.90;;;4.90;;
1759;SDS011;877;46.266;20.062;2023-09-19T00:16:27;9.30;;;5.13;;
1759;SDS011;877;46.266;20.062;2023-09-19T00:18:53;11.87;;;4.07;;
1759;SDS011;877;46.266;20.062;2023-09-19T00:21:20;15.40;;;5.43;;
1759;SDS011;877;46.266;20.062;2023-09-19T00:23:48;9.23;;;4.10;;
1759;SDS011;877;46.266;20.062;2023-09-19T00:26:14;9.87;;;4.43;;
1759;SDS011;877;46.266;20.062;2023-09-19T00:28:40;8.40;;;4.30;;
1759;SDS011;877;46.266;20.062;2023-09-19T00:31:07;7.63;;;4.60;;
1759;SDS011;877;46.266;20.062;2023-09-19T00:33:33;8.57;;;4.43;;
1759;SDS011;877;46.266;20.062;2023-09-19T00:36:00;7.83;;;4.60;;
1759;SDS011;877;46.266;20.062;2023-09-19T00:38:29;8.33;;;4.50;;
1759;SDS011;877;46.266;20.062;2023-09-19T00:40:57;11.83;;;4.93;;
1759;SDS011;877;46.266;20.062;2023-09-19T00:43:25;12.03;;;5.13;;
1759;SDS011;877;46.266;20.062;2023-09-19T00:45:53;9.80;;;5.00;;
1759;SDS011;877;46.266;20.062;2023-09-19T00:48:21;12.93;;;4.60;;
1759;SDS011;877;46.266;20.062;2023-09-19T00:50:48;10.27;;;4.93;;
1759;SDS011;877;46.266;20.062;2023-09-19T00:53:17;9.90;;;4.07;;
1759;SDS011;877;46.266;20.062;2023-09-19T00:55:47;7.73;;;4.70;;
1759;SDS011;877;46.266;20.062;2023-09-19T00:58:16;8.83;;;4.80;;
1759;SDS011;877;46.266;20.062;2023-09-19T01:00:43;7.80;;;4.50;;
1759;SDS011;877;46.266;20.062;2023-09-19T01:03:11;10.40;;;4.50;;
1759;SDS011;877;46.266;20.062;2023-09-19T01:05:38;10.10;;;5.03;;
1759;SDS011;877;46.266;20.062;2023-09-19T01:08:05;7.60;;;5.03;;
1759;SDS011;877;46.266;20.062;2023-09-19T01:10:32;11.20;;;5.20;;
1759;SDS011;877;46.266;20.062;2023-09-19T01:26:55;13.73;;;4.60;;
1759;SDS011;877;46.266;20.062;2023-09-19T01:29:44;9.03;;;5.37;;
1759;SDS011;877;46.266;20.062;2023-09-19T01:32:13;6.60;;;4.90;;
1759;SDS011;877;46.266;20.062;2023-09-19T01:34:48;14.30;;;5.37;;
1759;SDS011;877;46.266;20.062;2023-09-19T01:37:19;25.17;;;4.57;;
1759;SDS011;877;46.266;20.062;2023-09-19T01:40:12;7.70;;;4.60;;
1759;SDS011;877;46.266;20.062;2023-09-19T01:48:13;8.23;;;4.80;;
1759;SDS011;877;46.266;20.062;2023-09-19T01:50:54;8.03;;;4.83;;
1759;SDS011;877;46.266;20.062;2023-09-19T01:53:26;7.60;;;4.23;;
1759;SDS011;877;46.266;20.062;2023-09-19T01:55:55;8.07;;;4.90;;
1759;SDS011;877;46.266;20.062;2023-09-19T02:00:58;7.13;;;4.67;;
1759;SDS011;877;46.266;20.062;2023-09-19T02:03:26;10.77;;;4.80;;
1759;SDS011;877;46.266;20.062;2023-09-19T02:05:54;10.30;;;4.97;;
1759;SDS011;877;46.266;20.062;2023-09-19T02:08:20;12.63;;;5.50;;
1759;SDS011;877;46.266;20.062;2023-09-19T02:10:50;13.53;;;4.57;;
1759;SDS011;877;46.266;20.062;2023-09-19T02:13:18;8.63;;;4.80;;
1759;SDS011;877;46.266;20.062;2023-09-19T02:15:46;7.20;;;4.97;;
1759;SDS011;877;46.266;20.062;2023-09-19T02:21:34;9.13;;;5.27;;
1759;SDS011;877;46.266;20.062;2023-09-19T02:24:01;10.43;;;4.80;;
1759;SDS011;877;46.266;20.062;2023-09-19T02:26:30;6.70;;;4.83;;
1759;SDS011;877;46.266;20.062;2023-09-19T02:28:56;8.80;;;4.80;;
1759;SDS011;877;46.266;20.062;2023-09-19T02:31:21;9.67;;;5.83;;
1759;SDS011;877;46.266;20.062;2023-09-19T02:33:48;11.53;;;5.03;;
1759;SDS011;877;46.266;20.062;2023-09-19T02:36:14;11.90;;;4.97;;
1759;SDS011;877;46.266;20.062;2023-09-19T02:38:44;8.00;;;5.20;;
1759;SDS011;877;46.266;20.062;2023-09-19T02:41:11;7.83;;;5.40;;
1759;SDS011;877;46.266;20.062;2023-09-19T02:43:39;8.40;;;5.60;;
1759;SDS011;877;46.266;20.062;2023-09-19T02:46:10;8.70;;;5.30;;
1759;SDS011;877;46.266;20.062;2023-09-19T02:48:37;11.03;;;5.83;;
1759;SDS011;877;46.266;20.062;2023-09-19T02:51:04;7.77;;;5.37;;
1759;SDS011;877;46.266;20.062;2023-09-19T02:53:30;11.37;;;5.00;;
1759;SDS011;877;46.266;20.062;2023-09-19T02:55:57;9.20;;;5.00;;
1759;SDS011;877;46.266;20.062;2023-09-19T02:58:25;9.43;;;5.60;;
1759;SDS011;877;46.266;20.062;2023-09-19T03:00:52;9.33;;;5.60;;
1759;SDS011;877;46.266;20.062;2023-09-19T03:03:21;5.97;;;4.93;;
1759;SDS011;877;46.266;20.062;2023-09-19T03:05:48;7.80;;;6.03;;
1759;SDS011;877;46.266;20.062;2023-09-19T03:08:14;11.33;;;5.80;;
1759;SDS011;877;46.266;20.062;2023-09-19T03:10:45;6.63;;;5.80;;
1759;SDS011;877;46.266;20.062;2023-09-19T03:13:14;12.63;;;5.87;;
1759;SDS011;877;46.266;20.062;2023-09-19T03:15:43;9.17;;;5.60;;
1759;SDS011;877;46.266;20.062;2023-09-19T03:18:11;8.30;;;5.70;;
1759;SDS011;877;46.266;20.062;2023-09-19T03:20:40;13.17;;;6.20;;
1759;SDS011;877;46.266;20.062;2023-09-19T03:23:06;9.80;;;5.87;;
1759;SDS011;877;46.266;20.062;2023-09-19T03:25:34;13.30;;;7.00;;
1759;SDS011;877;46.266;20.062;2023-09-19T03:28:02;10.50;;;5.70;;
1759;SDS011;877;46.266;20.062;2023-09-19T03:30:31;10.83;;;6.60;;
1759;SDS011;877;46.266;20.062;2023-09-19T03:33:00;37.20;;;5.67;;
1759;SDS011;877;46.266;20.062;2023-09-19T03:35:27;10.00;;;5.43;;
1759;SDS011;877;46.266;20.062;2023-09-19T03:37:56;14.00;;;6.17;;
1759;SDS011;877;46.266;20.062;2023-09-19T03:40:23;7.70;;;5.97;;
1759;SDS011;877;46.266;20.062;2023-09-19T03:42:50;9.23;;;5.37;;
1759;SDS011;877;46.266;20.062;2023-09-19T03:45:16;11.20;;;5.73;;
1759;SDS011;877;46.266;20.062;2023-09-19T03:47:43;7.20;;;5.67;;
1759;SDS011;877;46.266;20.062;2023-09-19T03:50:09;19.00;;;6.10;;
1759;SDS011;877;46.266;20.062;2023-09-19T03:52:36;10.20;;;6.40;;
1759;SDS011;877;46.266;20.062;2023-09-19T03:55:02;9.97;;;5.53;;
1759;SDS011;877;46.266;20.062;2023-09-19T03:57:29;9.17;;;5.67;;
1759;SDS011;877;46.266;20.062;2023-09-19T03:59:55;7.57;;;5.60;;
1759;SDS011;877;46.266;20.062;2023-09-19T04:02:21;10.30;;;6.03;;
1759;SDS011;877;46.266;20.062;2023-09-19T04:04:48;8.57;;;6.23;;
1759;SDS011;877;46.266;20.062;2023-09-19T04:07:15;10.23;;;7.03;;
1759;SDS011;877;46.266;20.062;2023-09-19T04:09:42;8.70;;;6.40;;
1759;SDS011;877;46.266;20.062;2023-09-19T04:12:07;9.90;;;6.97;;
1759;SDS011;877;46.266;20.062;2023-09-19T04:14:38;12.37;;;6.50;;
1759;SDS011;877;46.266;20.062;2023-09-19T04:17:04;11.00;;;6.40;;
1759;SDS011;877;46.266;20.062;2023-09-19T04:19:31;9.50;;;6.47;;
1759;SDS011;877;46.266;20.062;2023-09-19T04:21:58;8.87;;;6.33;;
1759;SDS011;877;46.266;20.062;2023-09-19T04:24:29;9.43;;;6.20;;
1759;SDS011;877;46.266;20.062;2023-09-19T04:26:58;10.30;;;6.87;;
1759;SDS011;877;46.266;20.062;2023-09-19T04:29:25;10.70;;;7.07;;
1759;SDS011;877;46.266;20.062;2023-09-19T04:31:54;15.77;;;7.67;;
1759;SDS011;877;46.266;20.062;2023-09-19T04:34:21;10.40;;;6.60;;
1759;SDS011;877;46.266;20.062;2023-09-19T04:36:50;15.13;;;7.80;;
1759;SDS011;877;46.266;20.062;2023-09-19T04:39:16;12.70;;;7.30;;
1759;SDS011;877;46.266;20.062;2023-09-19T04:41:43;13.90;;;8.20;;
1759;SDS011;877;46.266;20.062;2023-09-19T04:44:11;9.90;;;7.93;;
1759;SDS011;877;46.266;20.062;2023-09-19T04:46:39;10.83;;;8.70;;
1759;SDS011;877;46.266;20.062;2023-09-19T04:49:04;12.77;;;8.00;;
1759;SDS011;877;46.266;20.062;2023-09-19T04:51:30;11.87;;;7.93;;
1759;SDS011;877;46.266;20.062;2023-09-19T04:54:00;14.63;;;8.90;;
1759;SDS011;877;46.266;20.062;2023-09-19T04:56:25;11.07;;;8.37;;
1759;SDS011;877;46.266;20.062;2023-09-19T04:58:54;13.30;;;9.20;;
1759;SDS011;877;46.266;20.062;2023-09-19T05:01:20;17.00;;;7.83;;
1759;SDS011;877;46.266;20.062;2023-09-19T05:03:49;13.10;;;8.47;;
1759;SDS011;877;46.266;20.062;2023-09-19T05:06:18;18.20;;;7.90;;
1759;SDS011;877;46.266;20.062;2023-09-19T05:08:48;15.30;;;8.67;;
1759;SDS011;877;46.266;20.062;2023-09-19T05:11:18;12.93;;;8.80;;
1759;SDS011;877;46.266;20.062;2023-09-19T05:13:45;12.57;;;8.50;;
1759;SDS011;877;46.266;20.062;2023-09-19T05:16:10;13.53;;;9.47;;
1759;SDS011;877;46.266;20.062;2023-09-19T05:18:39;16.20;;;9.70;;
1759;SDS011;877;46.266;20.062;2023-09-19T05:21:05;24.60;;;9.93;;
1759;SDS011;877;46.266;20.062;2023-09-19T05:23:32;11.30;;;8.10;;
1759;SDS011;877;46.266;20.062;2023-09-19T05:25:58;14.27;;;9.07;;
1759;SDS011;877;46.266;20.062;2023-09-19T05:28:25;13.73;;;9.10;;
1759;SDS011;877;46.266;20.062;2023-09-19T05:30:52;13.77;;;9.50;;
1759;SDS011;877;46.266;20.062;2023-09-19T05:33:18;12.53;;;9.23;;
1759;SDS011;877;46.266;20.062;2023-09-19T05:35:47;13.50;;;8.53;;
1759;SDS011;877;46.266;20.062;2023-09-19T05:38:13;17.97;;;9.07;;
1759;SDS011;877;46.266;20.062;2023-09-19T05:40:44;14.37;;;8.40;;
1759;SDS011;877;46.266;20.062;2023-09-19T05:43:10;12.27;;;8.63;;
1759;SDS011;877;46.266;20.062;2023-09-19T05:45:36;16.60;;;9.00;;
1759;SDS011;877;46.266;20.062;2023-09-19T05:48:09;9.67;;;7.93;;
1759;SDS011;877;46.266;20.062;2023-09-19T05:50:47;12.97;;;8.33;;
1759;SDS011;877;46.266;20.062;2023-09-19T05:53:14;11.10;;;7.97;;
1759;SDS011;877;46.266;20.062;2023-09-19T05:55:40;15.87;;;8.47;;
1759;SDS011;877;46.266;20.062;2023-09-19T05:58:08;10.80;;;8.67;;
1759;SDS011;877;46.266;20.062;2023-09-19T06:00:36;14.87;;;8.90;;
1759;SDS011;877;46.266;20.062;2023-09-19T06:03:02;11.33;;;8.87;;
1759;SDS011;877;46.266;20.062;2023-09-19T06:05:28;13.27;;;9.00;;
1759;SDS011;877;46.266;20.062;2023-09-19T06:07:57;14.07;;;8.00;;
1759;SDS011;877;46.266;20.062;2023-09-19T06:10:25;11.13;;;8.23;;
1759;SDS011;877;46.266;20.062;2023-09-19T06:12:53;11.47;;;7.90;;
1759;SDS011;877;46.266;20.062;2023-09-19T06:15:20;12.70;;;8.93;;
1759;SDS011;877;46.266;20.062;2023-09-19T06:17:54;12.43;;;9.10;;
1759;SDS011;877;46.266;20.062;2023-09-19T06:20:22;14.73;;;8.27;;
1759;SDS011;877;46.266;20.062;2023-09-19T06:22:53;10.13;;;8.30;;
1759;SDS011;877;46.266;20.062;2023-09-19T06:25:20;9.87;;;7.70;;
1759;SDS011;877;46.266;20.062;2023-09-19T06:27:55;13.60;;;8.40;;
1759;SDS011;877;46.266;20.062;2023-09-19T06:30:24;8.60;;;7.53;;
1759;SDS011;877;46.266;20.062;2023-09-19T06:32:58;14.43;;;8.00;;
1759;SDS011;877;46.266;20.062;2023-09-19T06:35:36;11.83;;;8.17;;
1759;SDS011;877;46.266;20.062;2023-09-19T06:40:50;10.40;;;7.93;;
1759;SDS011;877;46.266;20.062;2023-09-19T06:43:15;11.07;;;6.90;;
1759;SDS011;877;46.266;20.062;2023-09-19T06:45:41;10.30;;;6.80;;
1759;SDS011;877;46.266;20.062;2023-09-19T06:48:07;9.83;;;7.27;;
1759;SDS011;877;46.266;20.062;2023-09-19T06:50:35;12.07;;;7.43;;
1759;SDS011;877;46.266;20.062;2023-09-19T06:53:01;13.93;;;8.47;;
1759;SDS011;877;46.266;20.062;2023-09-19T06:55:28;13.37;;;7.50;;
1759;SDS011;877;46.266;20.062;2023-09-19T06:57:56;10.10;;;7.63;;
1759;SDS011;877;46.266;20.062;2023-09-19T07:00:22;11.13;;;7.47;;
1759;SDS011;877;46.266;20.062;2023-09-19T07:05:33;12.00;;;7.60;;
1759;SDS011;877;46.266;20.062;2023-09-19T07:08:05;10.63;;;7.50;;
1759;SDS011;877;46.266;20.062;2023-09-19T07:10:33;17.20;;;8.20;;
1759;SDS011;877;46.266;20.062;2023-09-19T07:13:00;12.03;;;7.50;;
1759;SDS011;877;46.266;20.062;2023-09-19T07:15:28;11.50;;;7.60;;
1759;SDS011;877;46.266;20.062;2023-09-19T07:17:56;12.63;;;8.27;;
1759;SDS011;877;46.266;20.062;2023-09-19T07:20:23;9.00;;;6.80;;
1759;SDS011;877;46.266;20.062;2023-09-19T07:22:56;8.67;;;6.40;;
1759;SDS011;877;46.266;20.062;2023-09-19T07:25:25;8.30;;;6.37;;
1759;SDS011;877;46.266;20.062;2023-09-19T07:27:52;12.47;;;7.60;;
1759;SDS011;877;46.266;20.062;2023-09-19T07:30:21;12.67;;;7.63;;
1759;SDS011;877;46.266;20.062;2023-09-19T07:32:48;9.90;;;7.80;;
1759;SDS011;877;46.266;20.062;2023-09-19T07:35:14;13.70;;;7.70;;
1759;SDS011;877;46.266;20.062;2023-09-19T07:37:40;11.33;;;7.80;;
1759;SDS011;877;46.266;20.062;2023-09-19T07:40:06;10.27;;;7.33;;
1759;SDS011;877;46.266;20.062;2023-09-19T07:42:35;13.33;;;7.73;;
1759;SDS011;877;46.266;20.062;2023-09-19T07:45:09;12.80;;;7.40;;
1759;SDS011;877;46.266;20.062;2023-09-19T07:47:43;10.53;;;8.80;;
1759;SDS011;877;46.266;20.062;2023-09-19T07:50:13;11.73;;;7.37;;
1759;SDS011;877;46.266;20.062;2023-09-19T07:52:41;7.67;;;6.87;;
1759;SDS011;877;46.266;20.062;2023-09-19T07:55:08;9.00;;;7.87;;
1759;SDS011;877;46.266;20.062;2023-09-19T07:57:34;10.67;;;7.67;;
1759;SDS011;877;46.266;20.062;2023-09-19T08:00:01;10.53;;;7.33;;
1759;SDS011;877;46.266;20.062;2023-09-19T08:02:34;11.60;;;7.57;;
1759;SDS011;877;46.266;20.062;2023-09-19T08:05:00;19.67;;;8.50;;
1759;SDS011;877;46.266;20.062;2023-09-19T08:07:32;9.27;;;6.50;;
1759;SDS011;877;46.266;20.062;2023-09-19T08:09:58;16.63;;;8.07;;
1759;SDS011;877;46.266;20.062;2023-09-19T08:12:24;10.53;;;7.40;;
1759;SDS011;877;46.266;20.062;2023-09-19T08:14:50;11.90;;;7.07;;
1759;SDS011;877;46.266;20.062;2023-09-19T08:17:17;10.53;;;6.77;;
1759;SDS011;877;46.266;20.062;2023-09-19T08:19:45;10.13;;;7.23;;
1759;SDS011;877;46.266;20.062;2023-09-19T08:22:11;13.17;;;7.20;;
1759;SDS011;877;46.266;20.062;2023-09-19T08:24:37;9.83;;;7.00;;
1759;SDS011;877;46.266;20.062;2023-09-19T08:27:03;17.73;;;7.70;;
1759;SDS011;877;46.266;20.062;2023-09-19T08:29:32;14.03;;;7.90;;
1759;SDS011;877;46.266;20.062;2023-09-19T08:31:58;11.07;;;7.33;;
1759;SDS011;877;46.266;20.062;2023-09-19T08:34:24;18.67;;;7.60;;
1759;SDS011;877;46.266;20.062;2023-09-19T08:36:53;10.07;;;7.57;;
1759;SDS011;877;46.266;20.062;2023-09-19T08:39:23;14.60;;;8.80;;
1759;SDS011;877;46.266;20.062;2023-09-19T08:41:49;12.57;;;7.90;;
1759;SDS011;877;46.266;20.062;2023-09-19T08:44:22;12.27;;;8.10;;
1759;SDS011;877;46.266;20.062;2023-09-19T08:46:49;9.57;;;7.20;;
1759;SDS011;877;46.266;20.062;2023-09-19T08:49:24;15.67;;;7.80;;
1759;SDS011;877;46.266;20.062;2023-09-19T08:52:01;14.13;;;7.50;;
1759;SDS011;877;46.266;20.062;2023-09-19T08:54:37;14.80;;;7.23;;
1759;SDS011;877;46.266;20.062;2023-09-19T08:57:08;13.77;;;7.83;;
1759;SDS011;877;46.266;20.062;2023-09-19T08:59:37;11.43;;;7.83;;
1759;SDS011;877;46.266;20.062;2023-09-19T09:02:11;14.17;;;8.50;;
1759;SDS011;877;46.266;20.062;2023-09-19T09:04:41;12.23;;;7.97;;
1759;SDS011;877;46.266;20.062;2023-09-19T09:07:13;11.30;;;8.40;;
1759;SDS011;877;46.266;20.062;2023-09-19T09:09:39;18.03;;;8.90;;
1759;SDS011;877;46.266;20.062;2023-09-19T09:12:12;15.73;;;9.80;;
1759;SDS011;877;46.266;20.062;2023-09-19T09:14:47;13.63;;;9.37;;
1759;SDS011;877;46.266;20.062;2023-09-19T09:17:18;15.17;;;10.60;;
1759;SDS011;877;46.266;20.062;2023-09-19T09:19:45;12.57;;;10.17;;
1759;SDS011;877;46.266;20.062;2023-09-19T09:22:12;18.87;;;9.10;;
1759;SDS011;877;46.266;20.062;2023-09-19T09:24:50;8.67;;;6.77;;
1759;SDS011;877;46.266;20.062;2023-09-19T09:27:19;14.80;;;6.60;;
1759;SDS011;877;46.266;20.062;2023-09-19T09:29:46;11.23;;;5.87;;
1759;SDS011;877;46.266;20.062;2023-09-19T09:32:23;10.07;;;6.00;;
1759;SDS011;877;46.266;20.062;2023-09-19T09:34:59;9.57;;;5.00;;
1759;SDS011;877;46.266;20.062;2023-09-19T09:37:26;7.30;;;3.97;;
1759;SDS011;877;46.266;20.062;2023-09-19T09:40:03;6.10;;;3.17;;
1759;SDS011;877;46.266;20.062;2023-09-19T09:42:58;8.77;;;3.73;;
1759;SDS011;877;46.266;20.062;2023-09-19T09:45:25;4.53;;;3.10;;
1759;SDS011;877;46.266;20.062;2023-09-19T09:48:03;5.90;;;3.20;;
1759;SDS011;877;46.266;20.062;2023-09-19T09:50:38;10.77;;;3.50;;
1759;SDS011;877;46.266;20.062;2023-09-19T09:55:59;8.00;;;2.60;;
1759;SDS011;877;46.266;20.062;2023-09-19T09:58:37;5.60;;;1.83;;
1759;SDS011;877;46.266;20.062;2023-09-19T10:01:24;4.93;;;1.83;;
1759;SDS011;877;46.266;20.062;2023-09-19T10:04:01;5.70;;;1.83;;
1759;SDS011;877;46.266;20.062;2023-09-19T10:06:27;7.57;;;1.50;;
1759;SDS011;877;46.266;20.062;2023-09-19T10:09:12;7.53;;;2.17;;
1759;SDS011;877;46.266;20.062;2023-09-19T10:12:05;3.57;;;1.40;;
1759;SDS011;877;46.266;20.062;2023-09-19T10:14:35;3.20;;;1.40;;
1759;SDS011;877;46.266;20.062;2023-09-19T10:17:04;3.90;;;1.73;;
1759;SDS011;877;46.266;20.062;2023-09-19T10:19:37;4.80;;;1.63;;
1759;SDS011;877;46.266;20.062;2023-09-19T10:22:10;13.23;;;5.87;;
1759;SDS011;877;46.266;20.062;2023-09-19T10:24:37;3.27;;;1.00;;
1759;SDS011;877;46.266;20.062;2023-09-19T10:27:04;4.40;;;1.50;;
1759;SDS011;877;46.266;20.062;2023-09-19T10:29:33;3.77;;;1.37;;
1759;SDS011;877;46.266;20.062;2023-09-19T10:32:03;10.50;;;2.10;;
1759;SDS011;877;46.266;20.062;2023-09-19T10:34:35;2.93;;;1.20;;
1759;SDS011;877;46.266;20.062;2023-09-19T10:37:02;3.80;;;1.37;;
1759;SDS011;877;46.266;20.062;2023-09-19T10:39:31;7.60;;;2.07;;
1759;SDS011;877;46.266;20.062;2023-09-19T10:42:01;4.20;;;1.47;;
1759;SDS011;877;46.266;20.062;2023-09-19T10:44:32;7.57;;;1.57;;
1759;SDS011;877;46.266;20.062;2023-09-19T10:46:58;9.90;;;2.73;;
1759;SDS011;877;46.266;20.062;2023-09-19T10:49:24;3.93;;;1.10;;
1759;SDS011;877;46.266;20.062;2023-09-19T10:51:54;3.63;;;1.47;;
1759;SDS011;877;46.266;20.062;2023-09-19T10:54:26;5.40;;;2.13;;
1759;SDS011;877;46.266;20.062;2023-09-19T11:11:41;3.80;;;1.57;;
1759;SDS011;877;46.266;20.062;2023-09-19T11:30:34;3.10;;;1.23;;
1759;SDS011;877;46.266;20.062;2023-09-19T11:33:18;3.17;;;1.50;;
1759;SDS011;877;46.266;20.062;2023-09-19T11:36:12;6.37;;;1.57;;
1759;SDS011;877;46.266;20.062;2023-09-19T11:43:47;2.83;;;1.23;;
1759;SDS011;877;46.266;20.062;2023-09-19T11:46:34;3.00;;;1.33;;
1759;SDS011;877;46.266;20.062;2023-09-19T11:49:18;3.73;;;1.50;;
1759;SDS011;877;46.266;20.062;2023-09-19T11:51:51;5.17;;;1.63;;
1759;SDS011;877;46.266;20.062;2023-09-19T11:54:17;2.97;;;1.40;;
1759;SDS011;877;46.266;20.062;2023-09-19T11:56:44;3.77;;;1.77;;
1759;SDS011;877;46.266;20.062;2023-09-19T11:59:11;3.47;;;1.43;;
1759;SDS011;877;46.266;20.062;2023-09-19T12:01:50;6.30;;;1.30;;
1759;SDS011;877;46.266;20.062;2023-09-19T12:04:43;7.30;;;1.50;;
1759;SDS011;877;46.266;20.062;2023-09-19T12:07:14;3.73;;;1.60;;
1759;SDS011;877;46.266;20.062;2023-09-19T12:09:50;5.83;;;1.43;;
1759;SDS011;877;46.266;20.062;2023-09-19T12:12:28;3.60;;;1.40;;
1759;SDS011;877;46.266;20.062;2023-09-19T12:14:55;3.70;;;1.50;;
1759;SDS011;877;46.266;20.062;2023-09-19T12:17:37;4.03;;;1.80;;
1759;SDS011;877;46.266;20.062;2023-09-19T12:20:06;4.57;;;1.33;;
1759;SDS011;877;46.266;20.062;2023-09-19T12:22:44;2.97;;;1.33;;
1759;SDS011;877;46.266;20.062;2023-09-19T12:25:12;4.50;;;1.33;;
1759;SDS011;877;46.266;20.062;2023-09-19T12:27:45;4.83;;;1.50;;
1759;SDS011;877;46.266;20.062;2023-09-19T12:30:16;4.50;;;1.73;;
1759;SDS011;877;46.266;20.062;2023-09-19T12:32:48;3.20;;;1.50;;
1759;SDS011;877;46.266;20.062;2023-09-19T12:35:27;3.33;;;1.57;;
1759;SDS011;877;46.266;20.062;2023-09-19T12:37:55;3.53;;;1.40;;
1759;SDS011;877;46.266;20.062;2023-09-19T12:40:22;7.13;;;1.80;;
1759;SDS011;877;46.266;20.062;2023-09-19T12:42:53;5.03;;;1.57;;
1759;SDS011;877;46.266;20.062;2023-09-19T12:45:20;3.80;;;1.70;;
1759;SDS011;877;46.266;20.062;2023-09-19T12:50:59;4.50;;;1.37;;
1759;SDS011;877;46.266;20.062;2023-09-19T12:53:33;3.23;;;1.40;;
1759;SDS011;877;46.266;20.062;2023-09-19T12:56:05;3.67;;;1.40;;
1759;SDS011;877;46.266;20.062;2023-09-19T12:58:34;4.00;;;1.60;;
1759;SDS011;877;46.266;20.062;2023-09-19T13:01:16;3.40;;;1.50;;
1759;SDS011;877;46.266;20.062;2023-09-19T13:03:42;4.93;;;1.43;;
1759;SDS011;877;46.266;20.062;2023-09-19T13:06:08;2.97;;;1.20;;
1759;SDS011;877;46.266;20.062;2023-09-19T13:08:35;2.80;;;1.10;;
1759;SDS011;877;46.266;20.062;2023-09-19T13:11:19;4.00;;;1.47;;
1759;SDS011;877;46.266;20.062;2023-09-19T13:13:48;4.20;;;1.63;;
1759;SDS011;877;46.266;20.062;2023-09-19T13:16:20;3.63;;;1.00;;
1759;SDS011;877;46.266;20.062;2023-09-19T13:18:52;3.43;;;1.33;;
1759;SDS011;877;46.266;20.062;2023-09-19T13:21:32;3.30;;;1.13;;
1759;SDS011;877;46.266;20.062;2023-09-19T13:24:21;4.50;;;1.33;;
1759;SDS011;877;46.266;20.062;2023-09-19T13:26:50;3.87;;;1.23;;
1759;SDS011;877;46.266;20.062;2023-09-19T13:29:16;3.47;;;1.20;;
1759;SDS011;877;46.266;20.062;2023-09-19T13:31:47;2.57;;;1.10;;
1759;SDS011;877;46.266;20.062;2023-09-19T13:34:13;3.23;;;1.53;;
1759;SDS011;877;46.266;20.062;2023-09-19T13:36:41;3.17;;;1.20;;
1759;SDS011;877;46.266;20.062;2023-09-19T13:39:07;3.40;;;1.40;;
1759;SDS011;877;46.266;20.062;2023-09-19T13:41:34;3.30;;;1.00;;
1759;SDS011;877;46.266;20.062;2023-09-19T13:44:03;6.90;;;1.40;;
1759;SDS011;877;46.266;20.062;2023-09-19T13:46:29;3.03;;;1.20;;
1759;SDS011;877;46.266;20.062;2023-09-19T13:48:58;4.00;;;1.30;;
1759;SDS011;877;46.266;20.062;2023-09-19T13:51:27;3.50;;;1.33;;
1759;SDS011;877;46.266;20.062;2023-09-19T13:53:54;3.53;;;1.20;;
1759;SDS011;877;46.266;20.062;2023-09-19T13:56:21;4.90;;;1.37;;
1759;SDS011;877;46.266;20.062;2023-09-19T13:58:46;3.50;;;1.40;;
1759;SDS011;877;46.266;20.062;2023-09-19T14:01:13;2.83;;;1.10;;
1759;SDS011;877;46.266;20.062;2023-09-19T14:03:39;4.00;;;1.20;;
1759;SDS011;877;46.266;20.062;2023-09-19T14:06:06;2.90;;;1.10;;
1759;SDS011;877;46.266;20.062;2023-09-19T14:08:32;3.10;;;1.40;;
1759;SDS011;877;46.266;20.062;2023-09-19T14:11:01;3.27;;;1.00;;
1759;SDS011;877;46.266;20.062;2023-09-19T14:13:31;3.20;;;1.27;;
1759;SDS011;877;46.266;20.062;2023-09-19T14:15:57;7.07;;;1.80;;
1759;SDS011;877;46.266;20.062;2023-09-19T14:18:23;4.80;;;1.67;;
1759;SDS011;877;46.266;20.062;2023-09-19T14:20:50;5.13;;;1.30;;
1759;SDS011;877;46.266;20.062;2023-09-19T14:23:18;7.33;;;1.13;;
1759;SDS011;877;46.266;20.062;2023-09-19T14:25:44;6.13;;;1.40;;
1759;SDS011;877;46.266;20.062;2023-09-19T14:28:09;6.23;;;1.40;;
1759;SDS011;877;46.266;20.062;2023-09-19T14:30:35;5.40;;;1.80;;
1759;SDS011;877;46.266;20.062;2023-09-19T14:33:02;7.47;;;2.10;;
1759;SDS011;877;46.266;20.062;2023-09-19T14:35:29;4.63;;;1.30;;
1759;SDS011;877;46.266;20.062;2023-09-19T14:37:56;4.20;;;1.63;;
1759;SDS011;877;46.266;20.062;2023-09-19T14:40:22;5.53;;;1.30;;
1759;SDS011;877;46.266;20.062;2023-09-19T14:42:48;5.80;;;1.60;;
1759;SDS011;877;46.266;20.062;2023-09-19T14:45:20;3.03;;;1.40;;
1759;SDS011;877;46.266;20.062;2023-09-19T14:47:46;2.63;;;1.03;;
1759;SDS011;877;46.266;20.062;2023-09-19T14:50:13;5.40;;;1.80;;
1759;SDS011;877;46.266;20.062;2023-09-19T14:52:40;3.30;;;1.60;;
1759;SDS011;877;46.266;20.062;2023-09-19T14:55:06;2.77;;;1.10;;
1759;SDS011;877;46.266;20.062;2023-09-19T14:57:34;3.73;;;1.50;;
1759;SDS011;877;46.266;20.062;2023-09-19T15:00:00;6.67;;;1.13;;
1759;SDS011;877;46.266;20.062;2023-09-19T15:02:26;6.50;;;1.60;;
1759;SDS011;877;46.266;20.062;2023-09-19T15:04:52;5.70;;;1.37;;
1759;SDS011;877;46.266;20.062;2023-09-19T15:07:19;4.40;;;1.93;;
1759;SDS011;877;46.266;20.062;2023-09-19T15:14:49;3.53;;;1.60;;
1759;SDS011;877;46.266;20.062;2023-09-19T15:17:15;7.13;;;1.70;;
1759;SDS011;877;46.266;20.062;2023-09-19T15:19:41;2.90;;;1.20;;
1759;SDS011;877;46.266;20.062;2023-09-19T15:22:07;5.83;;;1.80;;
1759;SDS011;877;46.266;20.062;2023-09-19T15:24:33;4.93;;;1.50;;
1759;SDS011;877;46.266;20.062;2023-09-19T15:26:59;3.73;;;1.60;;
1759;SDS011;877;46.266;20.062;2023-09-19T15:29:41;5.43;;;1.50;;
1759;SDS011;877;46.266;20.062;2023-09-19T15:32:07;3.73;;;1.93;;
1759;SDS011;877;46.266;20.062;2023-09-19T15:34:35;4.60;;;1.70;;
1759;SDS011;877;46.266;20.062;2023-09-19T15:37:01;5.23;;;1.70;;
1759;SDS011;877;46.266;20.062;2023-09-19T15:39:29;3.00;;;1.53;;
1759;SDS011;877;46.266;20.062;2023-09-19T15:41:59;7.20;;;2.10;;
1759;SDS011;877;46.266;20.062;2023-09-19T15:44:24;6.27;;;2.00;;
1759;SDS011;877;46.266;20.062;2023-09-19T15:46:53;8.60;;;1.80;;
1759;SDS011;877;46.266;20.062;2023-09-19T15:49:19;4.00;;;1.30;;
1759;SDS011;877;46.266;20.062;2023-09-19T15:51:45;4.80;;;2.10;;
1759;SDS011;877;46.266;20.062;2023-09-19T15:54:14;8.03;;;1.90;;
1759;SDS011;877;46.266;20.062;2023-09-19T15:56:41;14.40;;;2.37;;
1759;SDS011;877;46.266;20.062;2023-09-19T15:59:08;5.47;;;1.73;;
1759;SDS011;877;46.266;20.062;2023-09-19T16:01:34;4.13;;;1.73;;
1759;SDS011;877;46.266;20.062;2023-09-19T16:04:05;5.63;;;1.80;;
1759;SDS011;877;46.266;20.062;2023-09-19T16:06:34;7.63;;;2.17;;
1759;SDS011;877;46.266;20.062;2023-09-19T16:09:01;22.23;;;3.07;;
1759;SDS011;877;46.266;20.062;2023-09-19T16:11:29;22.57;;;2.50;;
1759;SDS011;877;46.266;20.062;2023-09-19T16:13:57;14.37;;;2.33;;
1759;SDS011;877;46.266;20.062;2023-09-19T16:16:24;10.30;;;2.10;;
1759;SDS011;877;46.266;20.062;2023-09-19T16:18:59;12.73;;;3.10;;
1759;SDS011;877;46.266;20.062;2023-09-19T16:21:31;12.00;;;2.10;;
1759;SDS011;877;46.266;20.062;2023-09-19T16:23:59;3.80;;;1.67;;
1759;SDS011;877;46.266;20.062;2023-09-19T16:26:25;4.80;;;1.60;;
1759;SDS011;877;46.266;20.062;2023-09-19T16:28:53;4.47;;;2.10;;
1759;SDS011;877;46.266;20.062;2023-09-19T16:31:19;7.03;;;1.83;;
1759;SDS011;877;46.266;20.062;2023-09-19T16:33:46;3.80;;;1.50;;
1759;SDS011;877;46.266;20.062;2023-09-19T16:36:16;7.90;;;1.80;;
1759;SDS011;877;46.266;20.062;2023-09-19T16:38:44;3.77;;;1.40;;
1759;SDS011;877;46.266;20.062;2023-09-19T16:41:12;4.20;;;1.70;;